Search for airport 
image banner adimage banner adimage banner ad
image banner ad

30CL - Long Beach Memorial Medical Center

Located in Long Beach, United States

ICAO - 30CL, IATA -

Data provided by Airmate  

General information

Coordinates: N33°48'31" W118°11'12"
Elevation is 84 feet MSL.
Magnetic variation is 14° East
View others Airports in California

Operational data

Special qualification required
Current time UTC:
Current local time:
METAR: KLGB 221353Z 31004KT 10SM CLR 17/14 A2993 RMK AO2 SLP136 T01670139 $
TAF: KLGB 221136Z 2212/2312 31005KT P6SM FEW016 FM221700 19006KT P6SM FEW014 FM222300 30008KT P6SM SKC FM230600 VRB03KT P6SM SKC FM230900 VRB03KT P6SM OVC015
View NOTAMs / SUP AIP / TFR affecting this airport [VIEW]
Communications frequencies: [VIEW]

Runways:

Airport contact information

Address: Long Beach United States

Satellite view of 30CL